createdAt,value
2023-03-26T00:01:39.366Z,10.07
2023-03-26T00:04:07.763Z,10.08
2023-03-26T00:06:39.285Z,10.09
2023-03-26T00:09:09.841Z,10.08
2023-03-26T00:11:37.029Z,10.07
2023-03-26T00:14:05.750Z,10.06
2023-03-26T00:16:33.404Z,10.10
2023-03-26T00:19:01.883Z,10.09
2023-03-26T00:21:30.975Z,10.09
2023-03-26T00:24:04.590Z,10.11
2023-03-26T00:26:38.493Z,10.11
2023-03-26T00:29:07.010Z,10.01
2023-03-26T00:31:35.929Z,10.01
2023-03-26T00:34:03.963Z,9.89
2023-03-26T00:36:31.491Z,9.95
2023-03-26T00:38:58.832Z,9.91
2023-03-26T00:41:31.154Z,9.88
2023-03-26T00:43:59.950Z,9.93
2023-03-26T00:46:29.787Z,9.90
2023-03-26T00:48:59.079Z,9.88
2023-03-26T00:51:28.285Z,9.86
2023-03-26T00:53:55.986Z,9.87
2023-03-26T00:56:23.272Z,9.86
2023-03-26T00:58:50.679Z,9.86
2023-03-26T01:01:27.520Z,9.81
2023-03-26T01:04:08.210Z,9.78
2023-03-26T01:06:39.147Z,9.76
2023-03-26T01:09:16.315Z,9.66
2023-03-26T01:11:44.393Z,9.67
2023-03-26T01:14:16.305Z,9.68
2023-03-26T01:16:50.139Z,9.65
2023-03-26T01:19:45.272Z,9.57
2023-03-26T01:22:22.134Z,9.55
2023-03-26T01:24:53.908Z,9.62
2023-03-26T01:27:35.908Z,9.67
2023-03-26T01:30:10.605Z,9.69
2023-03-26T01:32:47.724Z,9.69
2023-03-26T01:35:29.166Z,9.64
2023-03-26T01:38:02.096Z,9.66
2023-03-26T01:40:43.125Z,9.64
2023-03-26T01:43:24.539Z,9.68
2023-03-26T01:45:52.833Z,9.68
2023-03-26T01:48:20.783Z,9.61
2023-03-26T01:50:49.107Z,9.68
2023-03-26T01:53:16.185Z,9.69
2023-03-26T01:56:02.479Z,9.74
2023-03-26T01:58:37.346Z,9.73
2023-03-26T02:01:19.743Z,9.65
2023-03-26T02:04:11.400Z,9.55
2023-03-26T02:06:46.250Z,9.48
2023-03-26T02:09:20.371Z,9.47
2023-03-26T02:11:49.007Z,9.47
2023-03-26T02:14:16.564Z,9.51
2023-03-26T02:16:47.054Z,9.49
2023-03-26T02:19:21.820Z,9.50
2023-03-26T02:21:51.727Z,9.52
2023-03-26T02:24:20.634Z,9.52
2023-03-26T02:26:49.988Z,9.54
2023-03-26T02:29:20.533Z,9.54
2023-03-26T02:31:49.687Z,9.52
2023-03-26T02:34:17.210Z,9.47
2023-03-26T02:36:52.583Z,9.46
2023-03-26T02:39:19.843Z,9.49
2023-03-26T02:41:54.909Z,9.51
2023-03-26T02:44:22.156Z,9.51
2023-03-26T02:46:58.314Z,9.55
2023-03-26T02:49:44.081Z,9.54
2023-03-26T02:52:18.761Z,9.54
2023-03-26T02:54:48.536Z,9.55
2023-03-26T02:57:20.940Z,9.52
2023-03-26T03:00:26.582Z,9.50
2023-03-26T03:03:26.689Z,9.49
2023-03-26T03:05:59.605Z,9.48
2023-03-26T03:08:46.598Z,9.48
2023-03-26T03:11:22.290Z,9.42
2023-03-26T03:13:51.515Z,9.42
2023-03-26T03:16:24.816Z,9.44
2023-03-26T03:18:57.768Z,9.43
2023-03-26T03:21:36.265Z,9.45
2023-03-26T03:24:03.998Z,9.45
2023-03-26T03:26:36.620Z,9.46
2023-03-26T03:29:22.024Z,9.39
2023-03-26T03:31:49.558Z,9.39
2023-03-26T03:34:33.474Z,9.42
2023-03-26T03:37:00.782Z,9.45
2023-03-26T03:39:35.030Z,9.51
2023-03-26T03:42:02.438Z,9.53
2023-03-26T03:44:29.835Z,9.55
2023-03-26T03:46:57.428Z,9.54
2023-03-26T03:49:24.512Z,9.56
2023-03-26T03:51:51.789Z,9.55
2023-03-26T03:54:28.605Z,9.58
2023-03-26T03:57:10.235Z,9.62
2023-03-26T03:59:53.206Z,9.57
2023-03-26T04:02:26.608Z,9.59
2023-03-26T04:04:58.571Z,9.54
2023-03-26T04:07:26.759Z,9.55
2023-03-26T04:10:08.848Z,9.59
2023-03-26T04:12:54.576Z,9.68
2023-03-26T04:15:36.318Z,9.73
2023-03-26T04:18:04.051Z,9.75
2023-03-26T04:20:32.281Z,9.72
2023-03-26T04:23:00.724Z,9.71
2023-03-26T04:25:30.553Z,9.74
2023-03-26T04:28:08.732Z,9.75
2023-03-26T04:30:49.038Z,9.80
2023-03-26T04:33:33.751Z,9.81
2023-03-26T04:36:03.197Z,9.90
2023-03-26T04:38:45.984Z,9.91
2023-03-26T04:41:15.953Z,9.92
2023-03-26T04:43:53.602Z,9.85
2023-03-26T04:46:33.807Z,9.87
2023-03-26T04:49:11.139Z,9.96
2023-03-26T04:51:42.042Z,9.91
2023-03-26T04:54:29.123Z,9.99
2023-03-26T04:57:06.305Z,10.04
2023-03-26T04:59:43.125Z,10.01
2023-03-26T05:02:14.190Z,10.08
2023-03-26T05:04:59.330Z,10.09
2023-03-26T05:07:30.433Z,10.06
2023-03-26T05:10:03.567Z,9.95
2023-03-26T05:12:52.775Z,10.01
2023-03-26T05:15:28.472Z,9.85
2023-03-26T05:18:16.903Z,9.86
2023-03-26T05:20:48.735Z,9.90
2023-03-26T05:23:15.761Z,9.88
2023-03-26T05:25:47.290Z,9.89
2023-03-26T05:28:24.818Z,9.70
2023-03-26T05:30:56.528Z,9.68
2023-03-26T05:33:27.268Z,9.65
2023-03-26T05:36:08.067Z,9.61
2023-03-26T05:38:35.953Z,9.61
2023-03-26T05:41:08.291Z,9.58
2023-03-26T05:43:37.657Z,9.55
2023-03-26T05:46:12.483Z,9.43
2023-03-26T05:48:39.722Z,9.49
2023-03-26T05:51:08.273Z,9.58
2023-03-26T05:53:39.580Z,9.70
2023-03-26T05:56:26.596Z,9.82
2023-03-26T05:59:12.601Z,9.89
2023-03-26T06:01:58.102Z,9.98
2023-03-26T06:04:46.072Z,9.95
2023-03-26T06:07:34.105Z,9.95
2023-03-26T06:10:18.398Z,9.97
2023-03-26T06:12:46.572Z,9.94
2023-03-26T06:15:14.058Z,9.85
2023-03-26T06:17:58.553Z,9.90
2023-03-26T06:20:37.676Z,9.88
2023-03-26T06:23:16.228Z,9.86
2023-03-26T06:26:01.867Z,9.83
2023-03-26T06:28:58.304Z,9.86
2023-03-26T06:31:44.175Z,9.88
2023-03-26T06:34:16.284Z,9.88
2023-03-26T06:36:43.269Z,9.93
2023-03-26T06:39:10.751Z,9.97
2023-03-26T06:41:45.430Z,10.03
2023-03-26T06:44:39.322Z,10.10
2023-03-26T06:47:24.902Z,10.19
2023-03-26T06:50:12.038Z,10.27
2023-03-26T06:53:05.072Z,10.33
2023-03-26T06:55:54.105Z,10.32
2023-03-26T06:58:39.466Z,10.33
2023-03-26T07:01:21.934Z,10.32
2023-03-26T07:04:07.361Z,10.38
2023-03-26T07:06:52.977Z,10.39
2023-03-26T07:09:38.456Z,10.37
2023-03-26T07:12:44.123Z,10.29
2023-03-26T07:15:37.314Z,10.17
2023-03-26T07:18:10.473Z,10.12
2023-03-26T07:20:39.695Z,10.10
2023-03-26T07:23:07.500Z,10.04
2023-03-26T07:25:53.022Z,9.91
2023-03-26T07:29:04.666Z,9.87
2023-03-26T07:31:48.171Z,9.78
2023-03-26T07:34:55.933Z,9.75
2023-03-26T07:37:39.735Z,9.69
2023-03-26T07:40:36.165Z,9.74
2023-03-26T07:43:41.704Z,9.72
2023-03-26T07:46:12.164Z,9.70
2023-03-26T07:48:51.937Z,9.62
2023-03-26T07:51:34.599Z,9.52
2023-03-26T07:54:13.382Z,9.60
2023-03-26T07:57:06.864Z,9.62
2023-03-26T07:59:51.177Z,9.59
2023-03-26T08:02:52.269Z,9.60
2023-03-26T08:06:02.075Z,9.61
2023-03-26T08:08:40.371Z,9.67
2023-03-26T08:11:58.357Z,9.70
2023-03-26T08:14:25.372Z,9.65
2023-03-26T08:17:04.358Z,9.47
2023-03-26T08:19:40.929Z,9.59
2023-03-26T08:22:20.905Z,9.71
2023-03-26T08:25:20.148Z,9.77
2023-03-26T08:27:55.947Z,9.63
2023-03-26T08:30:25.569Z,9.67
2023-03-26T08:33:00.008Z,9.50
2023-03-26T08:35:28.668Z,9.39
2023-03-26T08:37:55.916Z,9.39
2023-03-26T08:40:58.362Z,9.46
2023-03-26T08:43:31.253Z,9.50
2023-03-26T08:46:17.132Z,9.55
2023-03-26T08:49:16.888Z,9.52
2023-03-26T08:52:00.740Z,9.56
2023-03-26T08:54:57.116Z,9.47
2023-03-26T08:57:52.474Z,9.43
2023-03-26T09:00:37.989Z,9.44
2023-03-26T09:03:25.540Z,9.42
2023-03-26T09:06:17.070Z,9.48
2023-03-26T09:09:04.695Z,9.48
2023-03-26T09:11:54.656Z,9.57
2023-03-26T09:14:46.208Z,9.55
2023-03-26T09:17:28.648Z,9.54
2023-03-26T09:20:02.640Z,9.49
2023-03-26T09:22:32.865Z,9.29
2023-03-26T09:25:14.752Z,9.06
2023-03-26T09:28:22.035Z,9.04
2023-03-26T09:31:07.725Z,8.96
2023-03-26T09:33:53.989Z,8.93
2023-03-26T09:36:45.970Z,8.95
2023-03-26T09:39:39.273Z,8.93
2023-03-26T09:42:24.630Z,8.89
2023-03-26T09:45:10.704Z,8.86
2023-03-26T09:47:56.481Z,9.12
2023-03-26T09:50:56.590Z,9.24
2023-03-26T09:53:41.829Z,9.38
2023-03-26T09:56:24.034Z,9.35
2023-03-26T09:59:09.373Z,9.21
2023-03-26T10:02:04.628Z,9.16
2023-03-26T10:05:04.843Z,9.10
2023-03-26T10:07:40.847Z,9.03
2023-03-26T10:10:45.165Z,9.03
2023-03-26T10:13:18.466Z,8.98
2023-03-26T10:16:24.625Z,9.04
2023-03-26T10:19:10.545Z,9.14
2023-03-26T10:21:51.339Z,9.18
2023-03-26T10:24:30.486Z,9.16
2023-03-26T10:27:08.397Z,9.21
2023-03-26T10:30:16.864Z,9.23
2023-03-26T10:33:05.289Z,9.17
2023-03-26T10:35:42.112Z,9.23
2023-03-26T10:38:47.025Z,9.31
2023-03-26T10:41:23.040Z,9.44
2023-03-26T10:44:27.723Z,9.55
2023-03-26T10:47:01.198Z,9.54
2023-03-26T10:49:54.097Z,9.51
2023-03-26T10:52:34.652Z,9.43
2023-03-26T10:55:12.186Z,9.53
2023-03-26T10:57:52.271Z,9.54
2023-03-26T11:00:25.574Z,9.61
2023-03-26T11:03:20.842Z,9.54
2023-03-26T11:05:58.364Z,9.59
2023-03-26T11:08:52.812Z,9.58
2023-03-26T11:11:32.690Z,9.62
2023-03-26T11:14:13.692Z,9.63
2023-03-26T11:16:49.643Z,9.74
2023-03-26T11:19:37.313Z,9.83
2023-03-26T11:22:32.328Z,9.84
2023-03-26T11:25:05.744Z,9.93
2023-03-26T11:27:44.662Z,9.79
2023-03-26T11:30:17.628Z,9.89
2023-03-26T11:32:48.471Z,9.80
2023-03-26T11:35:40.477Z,9.91
2023-03-26T11:38:33.651Z,10.00
2023-03-26T11:41:03.801Z,9.84
2023-03-26T11:44:28.898Z,9.86
2023-03-26T11:47:01.741Z,9.77
2023-03-26T11:49:29.627Z,9.86
2023-03-26T11:51:56.927Z,9.81
2023-03-26T11:54:23.987Z,9.80
2023-03-26T11:57:12.283Z,9.78
2023-03-26T11:59:56.367Z,9.94
2023-03-26T12:02:29.920Z,9.96
2023-03-26T12:05:12.988Z,9.96
2023-03-26T12:07:52.937Z,10.00
2023-03-26T12:10:33.007Z,10.01
2023-03-26T12:13:03.428Z,9.98
2023-03-26T12:15:32.368Z,10.04
2023-03-26T12:18:17.731Z,10.06
2023-03-26T12:20:45.344Z,10.11
2023-03-26T12:23:42.621Z,9.93
2023-03-26T12:26:19.327Z,10.06
2023-03-26T12:28:49.734Z,10.08
2023-03-26T12:31:19.677Z,10.08
2023-03-26T12:34:35.559Z,10.10
2023-03-26T12:37:05.030Z,10.01
2023-03-26T12:40:10.555Z,10.07
2023-03-26T12:44:49.991Z,9.99
2023-03-26T12:45:31.467Z,9.93
2023-03-26T12:48:03.873Z,9.85
2023-03-26T12:50:57.783Z,9.92
2023-03-26T12:53:53.646Z,9.70
2023-03-26T12:56:37.003Z,9.85
2023-03-26T12:59:42.996Z,9.82
2023-03-26T13:02:48.765Z,9.70
2023-03-26T13:05:34.499Z,9.86
2023-03-26T13:08:25.988Z,9.85
2023-03-26T13:11:17.886Z,9.98
2023-03-26T13:13:52.970Z,9.99
2023-03-26T13:16:44.934Z,9.89
2023-03-26T13:19:34.379Z,9.78
2023-03-26T13:22:25.740Z,9.66
2023-03-26T13:25:25.132Z,9.70
2023-03-26T13:28:26.745Z,9.70
2023-03-26T13:31:07.651Z,9.73
2023-03-26T13:33:46.996Z,9.73
2023-03-26T13:36:31.890Z,9.69
2023-03-26T13:39:08.380Z,9.67
2023-03-26T13:41:47.430Z,9.61
2023-03-26T13:44:49.705Z,9.66
2023-03-26T13:47:22.661Z,9.64
2023-03-26T13:50:02.772Z,9.61
2023-03-26T13:52:40.078Z,9.61
2023-03-26T13:55:27.398Z,9.63
2023-03-26T13:58:12.403Z,9.66
2023-03-26T14:01:12.477Z,9.55
2023-03-26T14:04:01.081Z,9.47
2023-03-26T14:06:59.220Z,9.52
2023-03-26T14:09:43.139Z,9.57
2023-03-26T14:12:44.763Z,9.60
2023-03-26T14:15:16.604Z,9.59
2023-03-26T14:17:59.015Z,9.61
2023-03-26T14:20:50.374Z,9.47
2023-03-26T14:23:20.328Z,9.52
2023-03-26T14:26:08.429Z,9.51
2023-03-26T14:28:54.083Z,9.57
2023-03-26T14:31:38.802Z,9.51
2023-03-26T14:34:38.629Z,9.53
2023-03-26T14:37:27.019Z,9.56
2023-03-26T14:40:15.190Z,9.56
2023-03-26T14:43:08.114Z,9.58
2023-03-26T14:45:41.521Z,9.52
2023-03-26T14:48:27.964Z,9.55
2023-03-26T14:51:07.339Z,9.43
2023-03-26T14:53:40.519Z,9.46
2023-03-26T14:56:15.664Z,9.39
2023-03-26T14:59:04.754Z,9.39
2023-03-26T15:01:59.146Z,9.37
2023-03-26T15:04:35.401Z,9.47
2023-03-26T15:07:39.153Z,9.52
2023-03-26T15:10:54.032Z,9.53
2023-03-26T15:13:55.092Z,9.60
2023-03-26T15:17:11.070Z,9.68
2023-03-26T15:20:00.089Z,9.63
2023-03-26T15:22:45.791Z,9.49
2023-03-26T15:25:33.980Z,9.38
2023-03-26T15:28:19.728Z,9.40
2023-03-26T15:31:18.757Z,9.47
2023-03-26T15:34:12.310Z,9.39
2023-03-26T15:36:59.062Z,9.47
2023-03-26T15:40:10.037Z,9.53
2023-03-26T15:42:58.764Z,9.54
2023-03-26T15:45:48.090Z,9.50
2023-03-26T15:48:59.436Z,9.26
2023-03-26T15:51:46.365Z,9.37
2023-03-26T15:54:33.318Z,9.45
2023-03-26T15:57:24.985Z,9.41
2023-03-26T15:59:52.381Z,9.46
2023-03-26T16:02:58.312Z,9.43
2023-03-26T16:06:06.279Z,9.43
2023-03-26T16:09:11.706Z,9.33
2023-03-26T16:11:54.318Z,9.31
2023-03-26T16:14:24.627Z,9.34
2023-03-26T16:16:56.080Z,9.34
2023-03-26T16:19:23.150Z,9.33
2023-03-26T16:22:00.380Z,9.36
2023-03-26T16:24:30.809Z,9.33
2023-03-26T16:27:08.340Z,9.17
2023-03-26T16:30:01.131Z,9.23
2023-03-26T16:32:34.861Z,9.27
2023-03-26T16:35:24.102Z,9.28
2023-03-26T16:38:05.974Z,9.30
2023-03-26T16:40:36.249Z,9.27
2023-03-26T16:43:31.006Z,9.35
2023-03-26T16:46:20.049Z,9.43
2023-03-26T16:48:55.629Z,9.44
2023-03-26T16:51:53.799Z,9.30
2023-03-26T16:54:39.835Z,9.14
2023-03-26T16:57:45.606Z,9.20
2023-03-26T17:00:46.240Z,9.29
2023-03-26T17:03:27.208Z,9.27
2023-03-26T17:05:54.176Z,9.16
2023-03-26T17:08:42.251Z,9.14
2023-03-26T17:11:38.569Z,8.99
2023-03-26T17:14:23.628Z,9.03
2023-03-26T17:17:02.760Z,9.03
2023-03-26T17:19:42.027Z,8.99
2023-03-26T17:22:42.557Z,9.06
2023-03-26T17:25:52.747Z,8.95
2023-03-26T17:29:04.248Z,8.97
2023-03-26T17:31:59.649Z,8.96
2023-03-26T17:34:38.575Z,8.95
2023-03-26T17:37:21.559Z,8.91
2023-03-26T17:39:58.014Z,8.95
2023-03-26T17:42:33.162Z,8.99
2023-03-26T17:45:02.856Z,9.00
2023-03-26T17:47:41.674Z,8.95
2023-03-26T17:50:14.725Z,9.04
2023-03-26T17:53:05.368Z,8.94
2023-03-26T17:55:36.629Z,8.90
2023-03-26T17:58:06.932Z,8.92
2023-03-26T18:00:47.305Z,8.91
2023-03-26T18:03:31.248Z,8.87
2023-03-26T18:06:11.288Z,8.85
2023-03-26T18:08:56.862Z,8.77
2023-03-26T18:11:26.782Z,8.77
2023-03-26T18:14:38.880Z,8.78
2023-03-26T18:17:07.320Z,8.84
2023-03-26T18:19:53.628Z,8.91
2023-03-26T18:22:27.834Z,8.99
2023-03-26T18:24:59.900Z,9.06
2023-03-26T18:27:38.628Z,8.98
2023-03-26T18:30:16.344Z,9.02
2023-03-26T18:33:05.293Z,8.99
2023-03-26T18:35:39.802Z,8.93
2023-03-26T18:38:14.424Z,8.84
2023-03-26T18:40:44.275Z,8.78
2023-03-26T18:43:32.307Z,8.84
2023-03-26T18:46:03.007Z,8.97
2023-03-26T18:48:30.426Z,8.91
2023-03-26T18:51:04.791Z,8.87
2023-03-26T18:53:39.919Z,8.97
2023-03-26T18:56:31.910Z,9.00
2023-03-26T18:59:00.644Z,8.93
2023-03-26T19:01:32.176Z,8.96
2023-03-26T19:04:07.171Z,9.00
2023-03-26T19:06:40.072Z,9.01
2023-03-26T19:09:27.933Z,9.03
2023-03-26T19:12:05.519Z,9.01
2023-03-26T19:14:37.154Z,8.97
2023-03-26T19:17:07.132Z,9.04
2023-03-26T19:19:37.156Z,9.10
2023-03-26T19:22:06.123Z,9.18
2023-03-26T19:24:34.353Z,9.14
2023-03-26T19:27:02.848Z,9.14
2023-03-26T19:29:35.262Z,9.17
2023-03-26T19:32:15.571Z,9.17
2023-03-26T19:34:45.496Z,9.15
2023-03-26T19:37:31.555Z,9.09
2023-03-26T19:40:14.381Z,9.05
2023-03-26T19:42:44.786Z,9.10
2023-03-26T19:45:18.117Z,9.12
2023-03-26T19:47:48.667Z,9.11
2023-03-26T19:50:26.122Z,9.19
2023-03-26T19:53:17.294Z,9.15
2023-03-26T19:55:59.294Z,9.17
2023-03-26T19:58:27.401Z,9.19
2023-03-26T20:00:56.543Z,9.22
2023-03-26T20:03:46.369Z,9.24
2023-03-26T20:06:18.539Z,9.25
2023-03-26T20:08:46.649Z,9.15
2023-03-26T20:11:20.614Z,9.15
2023-03-26T20:13:48.610Z,9.19
2023-03-26T20:16:34.359Z,9.16
2023-03-26T20:19:02.571Z,9.14
2023-03-26T20:21:32.407Z,9.04
2023-03-26T20:23:59.579Z,8.99
2023-03-26T20:26:26.594Z,8.95
2023-03-26T20:28:53.973Z,8.98
2023-03-26T20:31:25.185Z,9.01
2023-03-26T20:33:54.035Z,9.02
2023-03-26T20:36:34.173Z,8.97
2023-03-26T20:39:08.530Z,8.93
2023-03-26T20:41:38.277Z,8.86
2023-03-26T20:44:13.877Z,8.87
2023-03-26T20:46:43.162Z,8.85
2023-03-26T20:49:11.688Z,8.81
2023-03-26T20:51:42.058Z,8.80
2023-03-26T20:54:21.566Z,8.72
2023-03-26T20:56:49.430Z,8.64
2023-03-26T20:59:21.835Z,8.57
2023-03-26T21:01:50.274Z,8.48
2023-03-26T21:04:17.947Z,8.44
2023-03-26T21:06:45.607Z,8.42
2023-03-26T21:09:18.370Z,8.45
2023-03-26T21:11:53.119Z,8.48
2023-03-26T21:14:26.140Z,8.46
2023-03-26T21:16:53.553Z,8.50
2023-03-26T21:19:21.205Z,8.52
2023-03-26T21:21:57.884Z,8.50
2023-03-26T21:24:33.249Z,8.55
2023-03-26T21:27:12.809Z,8.51
2023-03-26T21:29:40.372Z,8.55
2023-03-26T21:32:10.620Z,8.54
2023-03-26T21:34:42.121Z,8.53
2023-03-26T21:37:15.849Z,8.52
2023-03-26T21:39:44.962Z,8.53
2023-03-26T21:42:12.918Z,8.51
2023-03-26T21:44:40.209Z,8.51
2023-03-26T21:47:09.814Z,8.51
2023-03-26T21:49:38.615Z,8.49
2023-03-26T21:52:05.941Z,8.39
2023-03-26T21:54:33.555Z,8.30
2023-03-26T21:57:12.808Z,8.32
2023-03-26T22:00:01.377Z,8.30
2023-03-26T22:02:54.701Z,8.27
2023-03-26T22:05:48.363Z,8.28
2023-03-26T22:08:33.942Z,8.27
2023-03-26T22:11:01.528Z,8.26
2023-03-26T22:13:28.774Z,8.30
2023-03-26T22:15:56.969Z,8.38
2023-03-26T22:18:26.141Z,8.42
2023-03-26T22:20:53.385Z,8.39
2023-03-26T22:23:20.984Z,8.38
2023-03-26T22:25:48.123Z,8.34
2023-03-26T22:28:15.699Z,8.31
2023-03-26T22:30:42.801Z,8.28
2023-03-26T22:33:12.564Z,8.25
2023-03-26T22:35:42.095Z,8.22
2023-03-26T22:38:09.839Z,8.17
2023-03-26T22:40:37.041Z,8.16
2023-03-26T22:43:04.732Z,8.18
2023-03-26T22:45:32.674Z,8.19
2023-03-26T22:48:03.078Z,8.14
2023-03-26T22:50:31.529Z,8.17
2023-03-26T22:52:58.653Z,8.14
2023-03-26T22:55:29.050Z,8.12
2023-03-26T22:57:57.584Z,8.13
2023-03-26T23:00:26.642Z,8.17
2023-03-26T23:02:55.967Z,8.16
2023-03-26T23:05:23.789Z,8.18
2023-03-26T23:07:52.319Z,8.08
2023-03-26T23:10:19.496Z,8.09
2023-03-26T23:12:46.716Z,8.06
2023-03-26T23:15:14.190Z,8.10
2023-03-26T23:17:41.499Z,8.12
2023-03-26T23:20:14.758Z,8.12
2023-03-26T23:22:43.277Z,8.12
2023-03-26T23:25:11.817Z,8.08
2023-03-26T23:27:40.363Z,8.12
2023-03-26T23:30:08.328Z,8.05
2023-03-26T23:32:38.129Z,8.07
2023-03-26T23:35:06.177Z,8.05
2023-03-26T23:37:35.296Z,8.05
2023-03-26T23:40:07.522Z,8.04
2023-03-26T23:42:34.658Z,7.99
2023-03-26T23:45:02.168Z,7.89
2023-03-26T23:47:34.874Z,7.79
2023-03-26T23:50:05.440Z,7.69
2023-03-26T23:52:32.565Z,7.69
2023-03-26T23:55:02.793Z,7.71
2023-03-26T23:57:30.702Z,7.67
2023-03-26T23:59:58.467Z,7.59
